sensor_id;sensor_type;location;lat;lon;timestamp;P1;durP1;ratioP1;P2;durP2;ratioP2
14770;SDS011;7477;45.222;5.688;2023-08-06T00:00:01;2.20;;;1.50;;
14770;SDS011;7477;45.222;5.688;2023-08-06T00:03:21;1.63;;;1.52;;
14770;SDS011;7477;45.222;5.688;2023-08-06T00:06:40;1.88;;;1.65;;
14770;SDS011;7477;45.222;5.688;2023-08-06T00:09:59;2.28;;;1.55;;
14770;SDS011;7477;45.222;5.688;2023-08-06T00:13:19;3.40;;;1.67;;
14770;SDS011;7477;45.222;5.688;2023-08-06T00:16:38;2.53;;;1.30;;
14770;SDS011;7477;45.222;5.688;2023-08-06T00:19:57;1.33;;;1.20;;
14770;SDS011;7477;45.222;5.688;2023-08-06T00:23:16;1.98;;;1.52;;
14770;SDS011;7477;45.222;5.688;2023-08-06T00:26:36;1.27;;;1.10;;
14770;SDS011;7477;45.222;5.688;2023-08-06T00:29:55;1.65;;;1.38;;
14770;SDS011;7477;45.222;5.688;2023-08-06T00:33:14;1.42;;;1.30;;
14770;SDS011;7477;45.222;5.688;2023-08-06T00:36:33;2.63;;;2.08;;
14770;SDS011;7477;45.222;5.688;2023-08-06T00:39:53;1.52;;;1.40;;
14770;SDS011;7477;45.222;5.688;2023-08-06T00:43:12;1.77;;;1.45;;
14770;SDS011;7477;45.222;5.688;2023-08-06T00:46:31;1.30;;;1.20;;
14770;SDS011;7477;45.222;5.688;2023-08-06T00:49:52;1.00;;;1.00;;
14770;SDS011;7477;45.222;5.688;2023-08-06T00:53:11;1.30;;;1.20;;
14770;SDS011;7477;45.222;5.688;2023-08-06T00:56:32;2.10;;;1.23;;
14770;SDS011;7477;45.222;5.688;2023-08-06T00:59:54;1.85;;;1.38;;
14770;SDS011;7477;45.222;5.688;2023-08-06T01:03:14;1.30;;;1.20;;
14770;SDS011;7477;45.222;5.688;2023-08-06T01:14:13;2.30;;;1.40;;
14770;SDS011;7477;45.222;5.688;2023-08-06T01:17:38;1.63;;;1.30;;
14770;SDS011;7477;45.222;5.688;2023-08-06T01:20:59;1.35;;;1.25;;
14770;SDS011;7477;45.222;5.688;2023-08-06T01:24:18;1.23;;;1.10;;
14770;SDS011;7477;45.222;5.688;2023-08-06T01:31:05;1.58;;;1.48;;
14770;SDS011;7477;45.222;5.688;2023-08-06T01:34:30;1.30;;;1.20;;
14770;SDS011;7477;45.222;5.688;2023-08-06T01:37:52;1.60;;;1.33;;
14770;SDS011;7477;45.222;5.688;2023-08-06T01:41:13;1.60;;;1.27;;
14770;SDS011;7477;45.222;5.688;2023-08-06T01:44:32;1.38;;;1.27;;
14770;SDS011;7477;45.222;5.688;2023-08-06T01:47:52;1.50;;;1.40;;
14770;SDS011;7477;45.222;5.688;2023-08-06T01:51:11;1.63;;;1.45;;
14770;SDS011;7477;45.222;5.688;2023-08-06T01:54:30;1.65;;;1.40;;
14770;SDS011;7477;45.222;5.688;2023-08-06T01:57:49;2.75;;;1.38;;
14770;SDS011;7477;45.222;5.688;2023-08-06T02:01:08;1.58;;;1.27;;
14770;SDS011;7477;45.222;5.688;2023-08-06T02:04:27;1.30;;;1.10;;
14770;SDS011;7477;45.222;5.688;2023-08-06T02:07:47;2.03;;;1.25;;
14770;SDS011;7477;45.222;5.688;2023-08-06T02:11:06;1.70;;;1.38;;
14770;SDS011;7477;45.222;5.688;2023-08-06T02:14:25;2.80;;;1.40;;
14770;SDS011;7477;45.222;5.688;2023-08-06T02:17:45;2.90;;;1.70;;
14770;SDS011;7477;45.222;5.688;2023-08-06T02:21:04;1.15;;;1.05;;
14770;SDS011;7477;45.222;5.688;2023-08-06T02:24:23;2.17;;;1.10;;
14770;SDS011;7477;45.222;5.688;2023-08-06T02:27:42;1.33;;;1.20;;
14770;SDS011;7477;45.222;5.688;2023-08-06T02:31:01;1.50;;;1.17;;
14770;SDS011;7477;45.222;5.688;2023-08-06T02:34:21;1.45;;;1.10;;
14770;SDS011;7477;45.222;5.688;2023-08-06T02:37:40;1.35;;;1.00;;
14770;SDS011;7477;45.222;5.688;2023-08-06T02:40:59;1.30;;;1.20;;
14770;SDS011;7477;45.222;5.688;2023-08-06T02:44:21;1.90;;;1.55;;
14770;SDS011;7477;45.222;5.688;2023-08-06T02:47:40;0.90;;;0.85;;
14770;SDS011;7477;45.222;5.688;2023-08-06T02:50:59;1.95;;;1.38;;
14770;SDS011;7477;45.222;5.688;2023-08-06T02:54:19;2.10;;;1.20;;
14770;SDS011;7477;45.222;5.688;2023-08-06T02:57:38;0.95;;;0.95;;
14770;SDS011;7477;45.222;5.688;2023-08-06T03:01:01;1.20;;;1.10;;
14770;SDS011;7477;45.222;5.688;2023-08-06T03:04:22;3.17;;;1.50;;
14770;SDS011;7477;45.222;5.688;2023-08-06T03:07:41;1.00;;;0.95;;
14770;SDS011;7477;45.222;5.688;2023-08-06T03:11:00;3.33;;;1.10;;
14770;SDS011;7477;45.222;5.688;2023-08-06T03:14:19;1.05;;;1.05;;
14770;SDS011;7477;45.222;5.688;2023-08-06T03:17:38;1.80;;;1.23;;
14770;SDS011;7477;45.222;5.688;2023-08-06T03:20:58;2.92;;;1.33;;
14770;SDS011;7477;45.222;5.688;2023-08-06T03:24:17;1.02;;;0.90;;
14770;SDS011;7477;45.222;5.688;2023-08-06T03:27:36;1.85;;;1.23;;
14770;SDS011;7477;45.222;5.688;2023-08-06T03:31:02;2.30;;;1.27;;
14770;SDS011;7477;45.222;5.688;2023-08-06T03:34:22;1.35;;;1.00;;
14770;SDS011;7477;45.222;5.688;2023-08-06T03:37:41;1.13;;;0.93;;
14770;SDS011;7477;45.222;5.688;2023-08-06T03:41:00;1.70;;;1.10;;
14770;SDS011;7477;45.222;5.688;2023-08-06T03:44:19;1.52;;;1.00;;
14770;SDS011;7477;45.222;5.688;2023-08-06T03:47:38;1.33;;;0.95;;
14770;SDS011;7477;45.222;5.688;2023-08-06T03:50:57;1.20;;;1.10;;
14770;SDS011;7477;45.222;5.688;2023-08-06T03:54:19;2.47;;;1.13;;
14770;SDS011;7477;45.222;5.688;2023-08-06T03:57:38;1.05;;;1.00;;
14770;SDS011;7477;45.222;5.688;2023-08-06T04:01:01;1.73;;;1.13;;
14770;SDS011;7477;45.222;5.688;2023-08-06T04:04:21;6.22;;;1.58;;
14770;SDS011;7477;45.222;5.688;2023-08-06T04:07:40;4.18;;;1.63;;
14770;SDS011;7477;45.222;5.688;2023-08-06T04:10:59;3.60;;;1.15;;
14770;SDS011;7477;45.222;5.688;2023-08-06T04:14:19;4.30;;;1.77;;
14770;SDS011;7477;45.222;5.688;2023-08-06T04:17:39;3.95;;;1.80;;
14770;SDS011;7477;45.222;5.688;2023-08-06T04:20:58;4.90;;;1.58;;
14770;SDS011;7477;45.222;5.688;2023-08-06T04:24:17;5.15;;;1.80;;
14770;SDS011;7477;45.222;5.688;2023-08-06T04:27:36;6.38;;;1.77;;
14770;SDS011;7477;45.222;5.688;2023-08-06T04:30:59;10.35;;;1.67;;
14770;SDS011;7477;45.222;5.688;2023-08-06T04:34:19;5.55;;;1.60;;
14770;SDS011;7477;45.222;5.688;2023-08-06T04:37:38;4.72;;;1.63;;
14770;SDS011;7477;45.222;5.688;2023-08-06T04:40:57;5.22;;;1.90;;
14770;SDS011;7477;45.222;5.688;2023-08-06T04:44:17;7.50;;;1.80;;
14770;SDS011;7477;45.222;5.688;2023-08-06T04:47:37;6.25;;;1.83;;
14770;SDS011;7477;45.222;5.688;2023-08-06T04:50:56;7.45;;;1.90;;
14770;SDS011;7477;45.222;5.688;2023-08-06T04:54:15;6.43;;;1.98;;
14770;SDS011;7477;45.222;5.688;2023-08-06T04:57:34;6.22;;;1.73;;
14770;SDS011;7477;45.222;5.688;2023-08-06T05:00:53;5.65;;;2.42;;
14770;SDS011;7477;45.222;5.688;2023-08-06T05:04:12;6.95;;;2.10;;
14770;SDS011;7477;45.222;5.688;2023-08-06T05:07:32;6.07;;;2.17;;
14770;SDS011;7477;45.222;5.688;2023-08-06T05:10:51;5.43;;;1.92;;
14770;SDS011;7477;45.222;5.688;2023-08-06T05:14:10;8.98;;;2.17;;
14770;SDS011;7477;45.222;5.688;2023-08-06T05:17:29;7.70;;;1.95;;
14770;SDS011;7477;45.222;5.688;2023-08-06T05:20:49;9.60;;;2.45;;
14770;SDS011;7477;45.222;5.688;2023-08-06T05:24:08;8.18;;;2.00;;
14770;SDS011;7477;45.222;5.688;2023-08-06T05:27:27;9.02;;;1.80;;
14770;SDS011;7477;45.222;5.688;2023-08-06T05:30:46;6.15;;;2.42;;
14770;SDS011;7477;45.222;5.688;2023-08-06T05:34:06;5.80;;;1.80;;
14770;SDS011;7477;45.222;5.688;2023-08-06T05:37:26;4.53;;;2.03;;
14770;SDS011;7477;45.222;5.688;2023-08-06T05:40:45;5.93;;;1.55;;
14770;SDS011;7477;45.222;5.688;2023-08-06T05:44:05;6.90;;;1.95;;
14770;SDS011;7477;45.222;5.688;2023-08-06T05:47:24;7.47;;;1.95;;
14770;SDS011;7477;45.222;5.688;2023-08-06T05:50:43;5.13;;;1.80;;
14770;SDS011;7477;45.222;5.688;2023-08-06T05:54:02;8.90;;;2.10;;
14770;SDS011;7477;45.222;5.688;2023-08-06T05:57:22;9.57;;;2.55;;
14770;SDS011;7477;45.222;5.688;2023-08-06T06:00:41;7.53;;;2.55;;
14770;SDS011;7477;45.222;5.688;2023-08-06T06:04:00;6.32;;;1.80;;
14770;SDS011;7477;45.222;5.688;2023-08-06T06:07:19;9.93;;;2.13;;
14770;SDS011;7477;45.222;5.688;2023-08-06T06:10:38;10.57;;;2.00;;
14770;SDS011;7477;45.222;5.688;2023-08-06T06:13:57;7.15;;;1.92;;
14770;SDS011;7477;45.222;5.688;2023-08-06T06:17:16;5.28;;;1.77;;
14770;SDS011;7477;45.222;5.688;2023-08-06T06:20:35;6.82;;;1.90;;
14770;SDS011;7477;45.222;5.688;2023-08-06T06:23:55;6.32;;;2.10;;
14770;SDS011;7477;45.222;5.688;2023-08-06T06:27:15;9.98;;;2.38;;
14770;SDS011;7477;45.222;5.688;2023-08-06T06:30:34;5.63;;;1.98;;
14770;SDS011;7477;45.222;5.688;2023-08-06T06:33:53;6.95;;;2.17;;
14770;SDS011;7477;45.222;5.688;2023-08-06T06:37:13;7.05;;;2.28;;
14770;SDS011;7477;45.222;5.688;2023-08-06T06:40:32;5.82;;;1.70;;
14770;SDS011;7477;45.222;5.688;2023-08-06T06:43:51;12.13;;;2.30;;
14770;SDS011;7477;45.222;5.688;2023-08-06T06:47:10;8.07;;;2.05;;
14770;SDS011;7477;45.222;5.688;2023-08-06T06:50:29;5.60;;;1.73;;
14770;SDS011;7477;45.222;5.688;2023-08-06T06:53:49;6.50;;;1.80;;
14770;SDS011;7477;45.222;5.688;2023-08-06T06:57:08;4.53;;;1.30;;
14770;SDS011;7477;45.222;5.688;2023-08-06T07:00:27;4.03;;;1.45;;
14770;SDS011;7477;45.222;5.688;2023-08-06T07:03:46;3.90;;;1.38;;
14770;SDS011;7477;45.222;5.688;2023-08-06T07:07:05;2.95;;;1.33;;
14770;SDS011;7477;45.222;5.688;2023-08-06T07:10:25;7.80;;;1.88;;
14770;SDS011;7477;45.222;5.688;2023-08-06T07:13:44;2.65;;;1.10;;
14770;SDS011;7477;45.222;5.688;2023-08-06T07:17:04;3.22;;;1.35;;
14770;SDS011;7477;45.222;5.688;2023-08-06T07:20:23;1.88;;;1.00;;
14770;SDS011;7477;45.222;5.688;2023-08-06T07:23:42;3.05;;;1.60;;
14770;SDS011;7477;45.222;5.688;2023-08-06T07:27:02;3.08;;;1.83;;
14770;SDS011;7477;45.222;5.688;2023-08-06T07:30:22;2.40;;;1.50;;
14770;SDS011;7477;45.222;5.688;2023-08-06T07:33:41;2.45;;;1.10;;
14770;SDS011;7477;45.222;5.688;2023-08-06T07:37:00;5.05;;;1.55;;
14770;SDS011;7477;45.222;5.688;2023-08-06T07:40:19;7.07;;;2.10;;
14770;SDS011;7477;45.222;5.688;2023-08-06T07:43:38;4.45;;;1.35;;
14770;SDS011;7477;45.222;5.688;2023-08-06T07:46:58;6.78;;;1.95;;
14770;SDS011;7477;45.222;5.688;2023-08-06T07:50:17;5.72;;;1.77;;
14770;SDS011;7477;45.222;5.688;2023-08-06T07:53:37;5.80;;;2.00;;
14770;SDS011;7477;45.222;5.688;2023-08-06T07:56:57;3.25;;;1.63;;
14770;SDS011;7477;45.222;5.688;2023-08-06T08:00:16;5.68;;;1.75;;
14770;SDS011;7477;45.222;5.688;2023-08-06T08:03:35;3.92;;;1.30;;
14770;SDS011;7477;45.222;5.688;2023-08-06T08:06:54;3.78;;;1.58;;
14770;SDS011;7477;45.222;5.688;2023-08-06T08:10:13;4.18;;;1.50;;
14770;SDS011;7477;45.222;5.688;2023-08-06T08:13:32;6.03;;;1.60;;
14770;SDS011;7477;45.222;5.688;2023-08-06T08:16:53;3.88;;;1.55;;
14770;SDS011;7477;45.222;5.688;2023-08-06T08:20:12;6.97;;;1.58;;
14770;SDS011;7477;45.222;5.688;2023-08-06T08:23:31;6.63;;;1.55;;
14770;SDS011;7477;45.222;5.688;2023-08-06T08:26:51;6.55;;;1.55;;
14770;SDS011;7477;45.222;5.688;2023-08-06T08:30:11;2.67;;;1.25;;
14770;SDS011;7477;45.222;5.688;2023-08-06T08:33:30;1.00;;;0.90;;
14770;SDS011;7477;45.222;5.688;2023-08-06T08:36:49;3.15;;;1.52;;
14770;SDS011;7477;45.222;5.688;2023-08-06T08:40:08;4.40;;;1.08;;
14770;SDS011;7477;45.222;5.688;2023-08-06T08:43:29;4.40;;;1.33;;
14770;SDS011;7477;45.222;5.688;2023-08-06T08:46:49;5.68;;;1.58;;
14770;SDS011;7477;45.222;5.688;2023-08-06T08:50:08;4.20;;;1.73;;
14770;SDS011;7477;45.222;5.688;2023-08-06T08:53:29;3.70;;;1.40;;
14770;SDS011;7477;45.222;5.688;2023-08-06T08:56:50;4.32;;;1.50;;
14770;SDS011;7477;45.222;5.688;2023-08-06T09:00:09;3.15;;;1.25;;
14770;SDS011;7477;45.222;5.688;2023-08-06T09:03:29;4.57;;;1.50;;
14770;SDS011;7477;45.222;5.688;2023-08-06T09:06:50;4.53;;;1.58;;
14770;SDS011;7477;45.222;5.688;2023-08-06T09:10:11;4.55;;;1.55;;
14770;SDS011;7477;45.222;5.688;2023-08-06T09:13:32;3.85;;;1.33;;
14770;SDS011;7477;45.222;5.688;2023-08-06T09:16:51;4.88;;;1.60;;
14770;SDS011;7477;45.222;5.688;2023-08-06T09:20:14;1.60;;;1.13;;
14770;SDS011;7477;45.222;5.688;2023-08-06T09:23:34;3.63;;;1.30;;
14770;SDS011;7477;45.222;5.688;2023-08-06T09:26:53;2.15;;;1.23;;
14770;SDS011;7477;45.222;5.688;2023-08-06T09:30:13;1.75;;;0.88;;
14770;SDS011;7477;45.222;5.688;2023-08-06T09:33:49;4.43;;;1.08;;
14770;SDS011;7477;45.222;5.688;2023-08-06T09:37:08;3.15;;;1.25;;
14770;SDS011;7477;45.222;5.688;2023-08-06T09:40:30;4.50;;;1.40;;
14770;SDS011;7477;45.222;5.688;2023-08-06T09:43:50;1.17;;;1.02;;
14770;SDS011;7477;45.222;5.688;2023-08-06T09:47:09;2.28;;;1.02;;
14770;SDS011;7477;45.222;5.688;2023-08-06T09:50:29;2.13;;;1.05;;
14770;SDS011;7477;45.222;5.688;2023-08-06T09:53:55;1.90;;;1.10;;
14770;SDS011;7477;45.222;5.688;2023-08-06T09:57:15;2.60;;;1.20;;
14770;SDS011;7477;45.222;5.688;2023-08-06T10:00:34;1.83;;;0.88;;
14770;SDS011;7477;45.222;5.688;2023-08-06T10:03:53;4.45;;;1.48;;
14770;SDS011;7477;45.222;5.688;2023-08-06T10:07:14;0.93;;;0.70;;
14770;SDS011;7477;45.222;5.688;2023-08-06T10:10:34;1.13;;;0.80;;
14770;SDS011;7477;45.222;5.688;2023-08-06T10:14:02;1.83;;;1.00;;
14770;SDS011;7477;45.222;5.688;2023-08-06T10:17:31;0.82;;;0.70;;
14770;SDS011;7477;45.222;5.688;2023-08-06T10:20:53;2.72;;;1.20;;
14770;SDS011;7477;45.222;5.688;2023-08-06T10:24:13;2.58;;;0.90;;
14770;SDS011;7477;45.222;5.688;2023-08-06T10:27:34;1.63;;;0.90;;
14770;SDS011;7477;45.222;5.688;2023-08-06T10:30:58;0.90;;;0.90;;
14770;SDS011;7477;45.222;5.688;2023-08-06T10:34:17;1.55;;;1.10;;
14770;SDS011;7477;45.222;5.688;2023-08-06T10:37:37;1.77;;;1.17;;
14770;SDS011;7477;45.222;5.688;2023-08-06T10:44:17;1.58;;;0.90;;
14770;SDS011;7477;45.222;5.688;2023-08-06T10:47:39;1.10;;;0.70;;
14770;SDS011;7477;45.222;5.688;2023-08-06T10:50:59;0.68;;;0.63;;
14770;SDS011;7477;45.222;5.688;2023-08-06T10:54:20;1.42;;;0.90;;
14770;SDS011;7477;45.222;5.688;2023-08-06T10:57:39;0.77;;;0.77;;
14770;SDS011;7477;45.222;5.688;2023-08-06T11:00:58;1.13;;;1.00;;
14770;SDS011;7477;45.222;5.688;2023-08-06T11:04:18;0.80;;;0.80;;
14770;SDS011;7477;45.222;5.688;2023-08-06T11:07:38;0.47;;;0.47;;
14770;SDS011;7477;45.222;5.688;2023-08-06T11:11:07;2.30;;;0.90;;
14770;SDS011;7477;45.222;5.688;2023-08-06T11:14:31;0.90;;;0.73;;
14770;SDS011;7477;45.222;5.688;2023-08-06T11:17:51;2.00;;;0.90;;
14770;SDS011;7477;45.222;5.688;2023-08-06T11:21:10;0.80;;;0.80;;
14770;SDS011;7477;45.222;5.688;2023-08-06T11:24:33;1.08;;;0.75;;
14770;SDS011;7477;45.222;5.688;2023-08-06T11:27:52;0.98;;;0.60;;
14770;SDS011;7477;45.222;5.688;2023-08-06T11:31:18;1.25;;;0.90;;
14770;SDS011;7477;45.222;5.688;2023-08-06T11:34:39;2.78;;;0.90;;
14770;SDS011;7477;45.222;5.688;2023-08-06T11:37:59;0.65;;;0.60;;
14770;SDS011;7477;45.222;5.688;2023-08-06T11:41:19;3.83;;;0.65;;
14770;SDS011;7477;45.222;5.688;2023-08-06T11:44:40;0.60;;;0.60;;
14770;SDS011;7477;45.222;5.688;2023-08-06T11:48:07;1.50;;;0.68;;
14770;SDS011;7477;45.222;5.688;2023-08-06T11:51:29;2.80;;;0.70;;
14770;SDS011;7477;45.222;5.688;2023-08-06T11:55:04;0.95;;;0.80;;
14770;SDS011;7477;45.222;5.688;2023-08-06T11:58:26;1.60;;;1.00;;
14770;SDS011;7477;45.222;5.688;2023-08-06T12:01:47;3.08;;;1.00;;
14770;SDS011;7477;45.222;5.688;2023-08-06T12:05:13;1.52;;;0.82;;
14770;SDS011;7477;45.222;5.688;2023-08-06T12:08:33;1.85;;;1.20;;
14770;SDS011;7477;45.222;5.688;2023-08-06T12:11:52;1.73;;;0.80;;
14770;SDS011;7477;45.222;5.688;2023-08-06T12:15:11;1.65;;;1.08;;
14770;SDS011;7477;45.222;5.688;2023-08-06T12:18:31;3.45;;;0.90;;
14770;SDS011;7477;45.222;5.688;2023-08-06T12:21:50;0.68;;;0.68;;
14770;SDS011;7477;45.222;5.688;2023-08-06T12:25:10;0.80;;;0.80;;
14770;SDS011;7477;45.222;5.688;2023-08-06T12:28:31;0.70;;;0.70;;
14770;SDS011;7477;45.222;5.688;2023-08-06T12:31:50;0.70;;;0.68;;
14770;SDS011;7477;45.222;5.688;2023-08-06T12:35:09;0.60;;;0.60;;
14770;SDS011;7477;45.222;5.688;2023-08-06T12:38:28;0.85;;;0.70;;
14770;SDS011;7477;45.222;5.688;2023-08-06T12:41:51;1.05;;;0.85;;
14770;SDS011;7477;45.222;5.688;2023-08-06T12:45:10;1.65;;;0.90;;
14770;SDS011;7477;45.222;5.688;2023-08-06T12:48:29;2.97;;;0.98;;
14770;SDS011;7477;45.222;5.688;2023-08-06T12:51:50;1.98;;;1.10;;
14770;SDS011;7477;45.222;5.688;2023-08-06T12:55:10;0.82;;;0.57;;
14770;SDS011;7477;45.222;5.688;2023-08-06T12:58:30;0.80;;;0.80;;
14770;SDS011;7477;45.222;5.688;2023-08-06T13:01:49;1.80;;;0.95;;
14770;SDS011;7477;45.222;5.688;2023-08-06T13:05:08;1.92;;;1.00;;
14770;SDS011;7477;45.222;5.688;2023-08-06T13:08:28;1.17;;;0.60;;
14770;SDS011;7477;45.222;5.688;2023-08-06T13:11:48;1.70;;;0.82;;
14770;SDS011;7477;45.222;5.688;2023-08-06T13:15:08;3.03;;;0.82;;
14770;SDS011;7477;45.222;5.688;2023-08-06T13:18:28;1.77;;;0.88;;
14770;SDS011;7477;45.222;5.688;2023-08-06T13:25:08;1.40;;;1.00;;
14770;SDS011;7477;45.222;5.688;2023-08-06T13:28:27;1.67;;;0.88;;
14770;SDS011;7477;45.222;5.688;2023-08-06T13:31:47;2.67;;;1.30;;
14770;SDS011;7477;45.222;5.688;2023-08-06T13:35:06;1.35;;;1.00;;
14770;SDS011;7477;45.222;5.688;2023-08-06T13:38:25;2.05;;;1.00;;
14770;SDS011;7477;45.222;5.688;2023-08-06T13:41:44;1.92;;;1.00;;
14770;SDS011;7477;45.222;5.688;2023-08-06T13:45:05;2.00;;;0.90;;
14770;SDS011;7477;45.222;5.688;2023-08-06T13:48:25;0.70;;;0.65;;
14770;SDS011;7477;45.222;5.688;2023-08-06T13:51:44;2.88;;;1.05;;
14770;SDS011;7477;45.222;5.688;2023-08-06T13:55:03;1.85;;;1.00;;
14770;SDS011;7477;45.222;5.688;2023-08-06T13:58:23;0.90;;;0.90;;
14770;SDS011;7477;45.222;5.688;2023-08-06T14:01:44;1.35;;;1.00;;
14770;SDS011;7477;45.222;5.688;2023-08-06T14:05:03;0.75;;;0.75;;
14770;SDS011;7477;45.222;5.688;2023-08-06T14:08:23;0.75;;;0.75;;
14770;SDS011;7477;45.222;5.688;2023-08-06T14:11:44;2.35;;;0.88;;
14770;SDS011;7477;45.222;5.688;2023-08-06T14:15:03;1.83;;;0.77;;
14770;SDS011;7477;45.222;5.688;2023-08-06T14:18:23;1.10;;;0.90;;
14770;SDS011;7477;45.222;5.688;2023-08-06T14:21:42;1.05;;;0.95;;
14770;SDS011;7477;45.222;5.688;2023-08-06T14:25:01;1.98;;;0.90;;
14770;SDS011;7477;45.222;5.688;2023-08-06T14:28:20;1.88;;;1.15;;
14770;SDS011;7477;45.222;5.688;2023-08-06T14:31:39;2.92;;;1.00;;
14770;SDS011;7477;45.222;5.688;2023-08-06T14:34:59;2.25;;;1.30;;
14770;SDS011;7477;45.222;5.688;2023-08-06T14:38:18;2.95;;;1.65;;
14770;SDS011;7477;45.222;5.688;2023-08-06T14:41:37;3.00;;;1.27;;
14770;SDS011;7477;45.222;5.688;2023-08-06T14:44:57;2.08;;;0.93;;
14770;SDS011;7477;45.222;5.688;2023-08-06T14:48:16;2.25;;;1.00;;
14770;SDS011;7477;45.222;5.688;2023-08-06T14:51:35;3.22;;;1.05;;
14770;SDS011;7477;45.222;5.688;2023-08-06T14:54:55;4.05;;;0.90;;
14770;SDS011;7477;45.222;5.688;2023-08-06T14:58:14;3.25;;;1.20;;
14770;SDS011;7477;45.222;5.688;2023-08-06T15:01:33;1.92;;;1.30;;
14770;SDS011;7477;45.222;5.688;2023-08-06T15:04:53;1.73;;;1.17;;
14770;SDS011;7477;45.222;5.688;2023-08-06T15:08:13;1.83;;;1.27;;
14770;SDS011;7477;45.222;5.688;2023-08-06T15:11:32;3.38;;;1.10;;
14770;SDS011;7477;45.222;5.688;2023-08-06T15:14:51;1.25;;;1.10;;
14770;SDS011;7477;45.222;5.688;2023-08-06T15:18:11;2.05;;;1.00;;
14770;SDS011;7477;45.222;5.688;2023-08-06T15:21:30;2.63;;;1.08;;
14770;SDS011;7477;45.222;5.688;2023-08-06T15:24:49;1.48;;;1.08;;
14770;SDS011;7477;45.222;5.688;2023-08-06T15:28:08;3.33;;;1.08;;
14770;SDS011;7477;45.222;5.688;2023-08-06T15:31:35;3.80;;;1.05;;
14770;SDS011;7477;45.222;5.688;2023-08-06T15:34:56;2.20;;;1.00;;
14770;SDS011;7477;45.222;5.688;2023-08-06T15:38:16;1.25;;;1.13;;
14770;SDS011;7477;45.222;5.688;2023-08-06T15:41:35;1.98;;;1.10;;
14770;SDS011;7477;45.222;5.688;2023-08-06T15:44:55;1.60;;;1.08;;
14770;SDS011;7477;45.222;5.688;2023-08-06T15:48:14;4.28;;;1.35;;
14770;SDS011;7477;45.222;5.688;2023-08-06T15:51:33;2.08;;;1.10;;
14770;SDS011;7477;45.222;5.688;2023-08-06T15:54:53;1.58;;;1.02;;
14770;SDS011;7477;45.222;5.688;2023-08-06T15:58:12;1.58;;;1.10;;
14770;SDS011;7477;45.222;5.688;2023-08-06T16:01:31;2.13;;;1.48;;
14770;SDS011;7477;45.222;5.688;2023-08-06T16:04:51;4.65;;;1.25;;
14770;SDS011;7477;45.222;5.688;2023-08-06T16:08:10;3.50;;;1.30;;
14770;SDS011;7477;45.222;5.688;2023-08-06T16:11:29;2.67;;;1.10;;
14770;SDS011;7477;45.222;5.688;2023-08-06T16:14:48;2.35;;;1.23;;
14770;SDS011;7477;45.222;5.688;2023-08-06T16:18:08;2.08;;;1.40;;
14770;SDS011;7477;45.222;5.688;2023-08-06T16:21:27;1.80;;;1.30;;
14770;SDS011;7477;45.222;5.688;2023-08-06T16:24:46;1.23;;;1.13;;
14770;SDS011;7477;45.222;5.688;2023-08-06T16:28:07;1.48;;;1.17;;
14770;SDS011;7477;45.222;5.688;2023-08-06T16:31:26;1.25;;;1.15;;
14770;SDS011;7477;45.222;5.688;2023-08-06T16:34:45;2.67;;;2.30;;
14770;SDS011;7477;45.222;5.688;2023-08-06T16:41:26;8.05;;;4.05;;
14770;SDS011;7477;45.222;5.688;2023-08-06T16:44:46;4.25;;;1.95;;
14770;SDS011;7477;45.222;5.688;2023-08-06T16:48:05;6.20;;;2.60;;
14770;SDS011;7477;45.222;5.688;2023-08-06T16:51:24;2.95;;;2.28;;
14770;SDS011;7477;45.222;5.688;2023-08-06T16:54:43;3.38;;;1.60;;
14770;SDS011;7477;45.222;5.688;2023-08-06T16:58:03;2.20;;;1.40;;
14770;SDS011;7477;45.222;5.688;2023-08-06T17:01:22;4.20;;;1.25;;
14770;SDS011;7477;45.222;5.688;2023-08-06T17:04:43;2.13;;;1.23;;
14770;SDS011;7477;45.222;5.688;2023-08-06T17:08:04;1.73;;;1.20;;
14770;SDS011;7477;45.222;5.688;2023-08-06T17:11:24;1.83;;;1.20;;
14770;SDS011;7477;45.222;5.688;2023-08-06T17:14:43;1.92;;;1.50;;
14770;SDS011;7477;45.222;5.688;2023-08-06T17:18:02;2.15;;;1.42;;
14770;SDS011;7477;45.222;5.688;2023-08-06T17:21:21;1.70;;;1.15;;
14770;SDS011;7477;45.222;5.688;2023-08-06T17:24:40;3.45;;;1.33;;
14770;SDS011;7477;45.222;5.688;2023-08-06T17:27:59;3.05;;;1.55;;
14770;SDS011;7477;45.222;5.688;2023-08-06T17:31:19;1.58;;;1.20;;
14770;SDS011;7477;45.222;5.688;2023-08-06T17:34:39;3.05;;;1.90;;
14770;SDS011;7477;45.222;5.688;2023-08-06T17:37:58;3.13;;;1.75;;
14770;SDS011;7477;45.222;5.688;2023-08-06T17:41:18;3.10;;;1.30;;
14770;SDS011;7477;45.222;5.688;2023-08-06T17:44:40;3.28;;;1.30;;
14770;SDS011;7477;45.222;5.688;2023-08-06T17:48:00;2.42;;;1.45;;
14770;SDS011;7477;45.222;5.688;2023-08-06T17:51:19;2.55;;;1.17;;
14770;SDS011;7477;45.222;5.688;2023-08-06T17:54:38;3.03;;;1.27;;
14770;SDS011;7477;45.222;5.688;2023-08-06T17:57:57;2.53;;;1.05;;
14770;SDS011;7477;45.222;5.688;2023-08-06T18:01:18;1.80;;;1.17;;
14770;SDS011;7477;45.222;5.688;2023-08-06T18:04:37;3.78;;;1.15;;
14770;SDS011;7477;45.222;5.688;2023-08-06T18:07:56;2.17;;;1.40;;
14770;SDS011;7477;45.222;5.688;2023-08-06T18:11:15;1.92;;;1.48;;
14770;SDS011;7477;45.222;5.688;2023-08-06T18:14:36;1.77;;;1.13;;
14770;SDS011;7477;45.222;5.688;2023-08-06T18:17:56;3.95;;;1.75;;
14770;SDS011;7477;45.222;5.688;2023-08-06T18:21:15;3.97;;;1.30;;
14770;SDS011;7477;45.222;5.688;2023-08-06T18:24:34;1.70;;;1.20;;
14770;SDS011;7477;45.222;5.688;2023-08-06T18:27:54;2.45;;;1.52;;
14770;SDS011;7477;45.222;5.688;2023-08-06T18:31:13;2.90;;;1.17;;
14770;SDS011;7477;45.222;5.688;2023-08-06T18:34:33;3.13;;;1.38;;
14770;SDS011;7477;45.222;5.688;2023-08-06T18:37:53;1.55;;;1.25;;
14770;SDS011;7477;45.222;5.688;2023-08-06T18:41:15;1.63;;;1.30;;
14770;SDS011;7477;45.222;5.688;2023-08-06T18:44:34;2.30;;;1.30;;
14770;SDS011;7477;45.222;5.688;2023-08-06T18:47:54;1.05;;;1.00;;
14770;SDS011;7477;45.222;5.688;2023-08-06T18:51:13;2.08;;;1.40;;
14770;SDS011;7477;45.222;5.688;2023-08-06T18:54:32;3.08;;;1.25;;
14770;SDS011;7477;45.222;5.688;2023-08-06T18:57:51;2.25;;;1.40;;
14770;SDS011;7477;45.222;5.688;2023-08-06T19:01:10;3.63;;;1.40;;
14770;SDS011;7477;45.222;5.688;2023-08-06T19:04:29;1.75;;;1.15;;
14770;SDS011;7477;45.222;5.688;2023-08-06T19:07:49;2.15;;;1.20;;
14770;SDS011;7477;45.222;5.688;2023-08-06T19:11:09;2.55;;;1.23;;
14770;SDS011;7477;45.222;5.688;2023-08-06T19:14:28;2.30;;;1.17;;
14770;SDS011;7477;45.222;5.688;2023-08-06T19:17:47;3.03;;;1.10;;
14770;SDS011;7477;45.222;5.688;2023-08-06T19:21:06;2.28;;;1.20;;
14770;SDS011;7477;45.222;5.688;2023-08-06T19:24:26;1.77;;;1.30;;
14770;SDS011;7477;45.222;5.688;2023-08-06T19:27:45;1.63;;;1.10;;
14770;SDS011;7477;45.222;5.688;2023-08-06T19:31:04;1.30;;;1.20;;
14770;SDS011;7477;45.222;5.688;2023-08-06T19:34:23;3.42;;;1.42;;
14770;SDS011;7477;45.222;5.688;2023-08-06T19:37:43;2.83;;;1.23;;
14770;SDS011;7477;45.222;5.688;2023-08-06T19:41:06;2.38;;;1.38;;
14770;SDS011;7477;45.222;5.688;2023-08-06T19:44:28;3.90;;;1.63;;
14770;SDS011;7477;45.222;5.688;2023-08-06T19:47:47;1.70;;;1.55;;
14770;SDS011;7477;45.222;5.688;2023-08-06T19:51:06;1.80;;;1.08;;
14770;SDS011;7477;45.222;5.688;2023-08-06T19:54:26;1.13;;;1.02;;
14770;SDS011;7477;45.222;5.688;2023-08-06T19:57:45;1.48;;;0.90;;
14770;SDS011;7477;45.222;5.688;2023-08-06T20:01:04;2.83;;;1.50;;
14770;SDS011;7477;45.222;5.688;2023-08-06T20:04:25;2.38;;;1.38;;
14770;SDS011;7477;45.222;5.688;2023-08-06T20:07:44;1.77;;;1.20;;
14770;SDS011;7477;45.222;5.688;2023-08-06T20:11:03;2.13;;;1.40;;
14770;SDS011;7477;45.222;5.688;2023-08-06T20:14:23;2.97;;;1.27;;
14770;SDS011;7477;45.222;5.688;2023-08-06T20:17:42;1.40;;;1.30;;
14770;SDS011;7477;45.222;5.688;2023-08-06T20:21:01;3.60;;;1.60;;
14770;SDS011;7477;45.222;5.688;2023-08-06T20:24:20;2.13;;;1.05;;
14770;SDS011;7477;45.222;5.688;2023-08-06T20:27:39;1.80;;;1.33;;
14770;SDS011;7477;45.222;5.688;2023-08-06T20:30:59;2.15;;;1.48;;
14770;SDS011;7477;45.222;5.688;2023-08-06T20:34:18;2.38;;;1.10;;
14770;SDS011;7477;45.222;5.688;2023-08-06T20:37:38;3.53;;;1.20;;
14770;SDS011;7477;45.222;5.688;2023-08-06T20:40:57;1.85;;;1.13;;